sensor_id;sensor_type;location;lat;lon;timestamp;P1;durP1;ratioP1;P2;durP2;ratioP2
7661;SDS011;30314;48.184;11.510;2022-07-22T00:01:36;19.73;;;14.20;;
7661;SDS011;30314;48.184;11.510;2022-07-22T00:04:09;20.07;;;16.20;;
7661;SDS011;30314;48.184;11.510;2022-07-22T00:06:36;19.53;;;14.17;;
7661;SDS011;30314;48.184;11.510;2022-07-22T00:09:04;17.30;;;14.80;;
7661;SDS011;30314;48.184;11.510;2022-07-22T00:11:35;20.93;;;14.47;;
7661;SDS011;30314;48.184;11.510;2022-07-22T00:14:03;27.63;;;15.27;;
7661;SDS011;30314;48.184;11.510;2022-07-22T00:16:31;17.97;;;14.10;;
7661;SDS011;30314;48.184;11.510;2022-07-22T00:18:59;19.90;;;14.77;;
7661;SDS011;30314;48.184;11.510;2022-07-22T00:21:27;21.97;;;15.87;;
7661;SDS011;30314;48.184;11.510;2022-07-22T00:23:55;21.10;;;14.13;;
7661;SDS011;30314;48.184;11.510;2022-07-22T00:26:23;17.07;;;14.63;;
7661;SDS011;30314;48.184;11.510;2022-07-22T00:28:52;23.20;;;14.67;;
7661;SDS011;30314;48.184;11.510;2022-07-22T00:31:20;18.07;;;14.57;;
7661;SDS011;30314;48.184;11.510;2022-07-22T00:33:48;18.93;;;14.83;;
7661;SDS011;30314;48.184;11.510;2022-07-22T00:36:16;16.13;;;14.17;;
7661;SDS011;30314;48.184;11.510;2022-07-22T00:38:44;19.90;;;14.97;;
7661;SDS011;30314;48.184;11.510;2022-07-22T00:41:12;17.63;;;14.17;;
7661;SDS011;30314;48.184;11.510;2022-07-22T00:43:51;20.47;;;15.70;;
7661;SDS011;30314;48.184;11.510;2022-07-22T00:46:22;18.50;;;14.90;;
7661;SDS011;30314;48.184;11.510;2022-07-22T00:48:51;21.00;;;15.57;;
7661;SDS011;30314;48.184;11.510;2022-07-22T00:51:21;18.43;;;14.33;;
7661;SDS011;30314;48.184;11.510;2022-07-22T00:53:50;18.43;;;15.30;;
7661;SDS011;30314;48.184;11.510;2022-07-22T00:56:19;19.80;;;14.83;;
7661;SDS011;30314;48.184;11.510;2022-07-22T01:01:43;15.97;;;13.97;;
7661;SDS011;30314;48.184;11.510;2022-07-22T01:04:12;21.07;;;14.07;;
7661;SDS011;30314;48.184;11.510;2022-07-22T01:06:41;22.63;;;16.03;;
7661;SDS011;30314;48.184;11.510;2022-07-22T01:09:11;18.70;;;14.57;;
7661;SDS011;30314;48.184;11.510;2022-07-22T01:11:40;19.60;;;16.37;;
7661;SDS011;30314;48.184;11.510;2022-07-22T01:14:08;22.37;;;15.20;;
7661;SDS011;30314;48.184;11.510;2022-07-22T01:16:38;23.00;;;17.00;;
7661;SDS011;30314;48.184;11.510;2022-07-22T01:19:09;19.80;;;16.13;;
7661;SDS011;30314;48.184;11.510;2022-07-22T01:21:39;19.10;;;14.73;;
7661;SDS011;30314;48.184;11.510;2022-07-22T01:24:07;21.13;;;14.70;;
7661;SDS011;30314;48.184;11.510;2022-07-22T01:26:35;21.53;;;15.40;;
7661;SDS011;30314;48.184;11.510;2022-07-22T01:29:03;18.37;;;15.70;;
7661;SDS011;30314;48.184;11.510;2022-07-22T01:31:31;18.50;;;15.50;;
7661;SDS011;30314;48.184;11.510;2022-07-22T01:33:59;20.57;;;15.53;;
7661;SDS011;30314;48.184;11.510;2022-07-22T01:36:31;21.60;;;15.77;;
7661;SDS011;30314;48.184;11.510;2022-07-22T01:39:00;20.83;;;16.60;;
7661;SDS011;30314;48.184;11.510;2022-07-22T01:41:29;19.27;;;17.17;;
7661;SDS011;30314;48.184;11.510;2022-07-22T01:43:57;18.33;;;14.63;;
7661;SDS011;30314;48.184;11.510;2022-07-22T01:46:25;19.63;;;14.93;;
7661;SDS011;30314;48.184;11.510;2022-07-22T01:48:53;19.57;;;15.13;;
7661;SDS011;30314;48.184;11.510;2022-07-22T01:51:21;18.93;;;15.17;;
7661;SDS011;30314;48.184;11.510;2022-07-22T01:53:49;21.80;;;16.13;;
7661;SDS011;30314;48.184;11.510;2022-07-22T01:56:19;19.30;;;15.67;;
7661;SDS011;30314;48.184;11.510;2022-07-22T01:58:48;22.10;;;15.37;;
7661;SDS011;30314;48.184;11.510;2022-07-22T02:01:21;19.30;;;15.33;;
7661;SDS011;30314;48.184;11.510;2022-07-22T02:03:52;20.00;;;16.23;;
7661;SDS011;30314;48.184;11.510;2022-07-22T02:06:20;19.63;;;16.80;;
7661;SDS011;30314;48.184;11.510;2022-07-22T02:08:49;16.27;;;14.27;;
7661;SDS011;30314;48.184;11.510;2022-07-22T02:11:31;20.73;;;15.87;;
7661;SDS011;30314;48.184;11.510;2022-07-22T02:13:59;19.60;;;15.50;;
7661;SDS011;30314;48.184;11.510;2022-07-22T02:16:28;21.90;;;14.47;;
7661;SDS011;30314;48.184;11.510;2022-07-22T02:18:57;21.63;;;15.10;;
7661;SDS011;30314;48.184;11.510;2022-07-22T02:21:26;19.80;;;15.80;;
7661;SDS011;30314;48.184;11.510;2022-07-22T14:26:44;11.73;;;7.10;;
7661;SDS011;30314;48.184;11.510;2022-07-22T14:29:12;13.73;;;8.25;;
7661;SDS011;30314;48.184;11.510;2022-07-22T14:31:39;11.07;;;8.23;;
7661;SDS011;30314;48.184;11.510;2022-07-22T14:34:07;8.32;;;7.50;;
7661;SDS011;30314;48.184;11.510;2022-07-22T14:36:37;9.50;;;7.32;;
7661;SDS011;30314;48.184;11.510;2022-07-22T14:39:05;9.65;;;7.90;;
7661;SDS011;30314;48.184;11.510;2022-07-22T14:41:34;7.80;;;7.00;;
7661;SDS011;30314;48.184;11.510;2022-07-22T14:44:02;9.77;;;8.05;;
7661;SDS011;30314;48.184;11.510;2022-07-22T14:46:30;12.25;;;8.45;;
7661;SDS011;30314;48.184;11.510;2022-07-22T14:48:58;7.80;;;7.00;;
7661;SDS011;30314;48.184;11.510;2022-07-22T14:51:26;8.45;;;7.65;;
7661;SDS011;30314;48.184;11.510;2022-07-22T14:53:53;8.48;;;7.70;;
7661;SDS011;30314;48.184;11.510;2022-07-22T14:56:22;11.13;;;7.85;;
7661;SDS011;30314;48.184;11.510;2022-07-22T14:58:51;12.93;;;8.65;;
7661;SDS011;30314;48.184;11.510;2022-07-22T15:01:19;8.77;;;7.45;;
7661;SDS011;30314;48.184;11.510;2022-07-22T15:03:52;8.93;;;7.50;;
7661;SDS011;30314;48.184;11.510;2022-07-22T15:06:21;12.70;;;7.68;;
7661;SDS011;30314;48.184;11.510;2022-07-22T15:08:49;9.40;;;8.15;;
7661;SDS011;30314;48.184;11.510;2022-07-22T15:11:16;8.90;;;7.60;;
7661;SDS011;30314;48.184;11.510;2022-07-22T15:13:44;9.55;;;7.40;;
7661;SDS011;30314;48.184;11.510;2022-07-22T15:16:13;14.07;;;7.65;;
7661;SDS011;30314;48.184;11.510;2022-07-22T15:18:41;9.80;;;7.88;;
7661;SDS011;30314;48.184;11.510;2022-07-22T15:21:09;10.18;;;7.32;;
7661;SDS011;30314;48.184;11.510;2022-07-22T15:23:37;8.32;;;7.18;;
7661;SDS011;30314;48.184;11.510;2022-07-22T15:26:04;12.70;;;7.88;;
7661;SDS011;30314;48.184;11.510;2022-07-22T15:28:32;9.57;;;8.10;;
7661;SDS011;30314;48.184;11.510;2022-07-22T15:31:01;9.10;;;7.05;;
7661;SDS011;30314;48.184;11.510;2022-07-22T15:33:30;9.68;;;8.30;;
7661;SDS011;30314;48.184;11.510;2022-07-22T15:36:04;10.77;;;7.90;;
7661;SDS011;30314;48.184;11.510;2022-07-22T15:38:34;12.90;;;7.93;;
7661;SDS011;30314;48.184;11.510;2022-07-22T15:41:03;11.80;;;8.10;;
7661;SDS011;30314;48.184;11.510;2022-07-22T15:43:31;8.30;;;7.50;;
7661;SDS011;30314;48.184;11.510;2022-07-22T15:45:59;14.52;;;8.45;;
7661;SDS011;30314;48.184;11.510;2022-07-22T15:48:28;9.88;;;8.65;;
7661;SDS011;30314;48.184;11.510;2022-07-22T15:50:57;12.15;;;7.63;;
7661;SDS011;30314;48.184;11.510;2022-07-22T15:53:28;10.60;;;8.13;;
7661;SDS011;30314;48.184;11.510;2022-07-22T15:55:56;11.65;;;7.75;;
7661;SDS011;30314;48.184;11.510;2022-07-22T15:58:24;13.10;;;8.15;;
7661;SDS011;30314;48.184;11.510;2022-07-22T16:01:29;9.05;;;7.18;;
7661;SDS011;30314;48.184;11.510;2022-07-22T16:03:57;9.10;;;7.72;;
7661;SDS011;30314;48.184;11.510;2022-07-22T16:06:26;13.00;;;7.88;;
7661;SDS011;30314;48.184;11.510;2022-07-22T16:08:54;8.73;;;7.53;;
7661;SDS011;30314;48.184;11.510;2022-07-22T16:11:23;7.78;;;6.97;;
7661;SDS011;30314;48.184;11.510;2022-07-22T16:13:50;9.77;;;8.38;;
7661;SDS011;30314;48.184;11.510;2022-07-22T16:16:18;11.00;;;8.00;;
7661;SDS011;30314;48.184;11.510;2022-07-22T16:18:46;14.52;;;8.65;;
7661;SDS011;30314;48.184;11.510;2022-07-22T16:21:15;13.35;;;8.35;;
7661;SDS011;30314;48.184;11.510;2022-07-22T16:23:46;10.48;;;7.72;;
7661;SDS011;30314;48.184;11.510;2022-07-22T16:26:14;11.07;;;8.10;;
7661;SDS011;30314;48.184;11.510;2022-07-22T16:28:42;11.95;;;8.65;;
7661;SDS011;30314;48.184;11.510;2022-07-22T16:31:11;8.95;;;8.13;;
7661;SDS011;30314;48.184;11.510;2022-07-22T16:33:39;8.95;;;8.02;;
7661;SDS011;30314;48.184;11.510;2022-07-22T16:36:07;9.32;;;8.43;;
7661;SDS011;30314;48.184;11.510;2022-07-22T16:38:35;10.20;;;9.13;;
7661;SDS011;30314;48.184;11.510;2022-07-22T16:41:04;12.20;;;7.60;;
7661;SDS011;30314;48.184;11.510;2022-07-22T16:43:32;8.40;;;7.57;;
7661;SDS011;30314;48.184;11.510;2022-07-22T16:45:59;9.60;;;8.48;;
7661;SDS011;30314;48.184;11.510;2022-07-22T16:48:28;8.93;;;8.13;;
7661;SDS011;30314;48.184;11.510;2022-07-22T16:50:56;11.43;;;8.65;;
7661;SDS011;30314;48.184;11.510;2022-07-22T16:53:24;9.02;;;8.07;;
7661;SDS011;30314;48.184;11.510;2022-07-22T16:55:51;12.25;;;9.00;;
7661;SDS011;30314;48.184;11.510;2022-07-22T16:58:21;11.50;;;8.35;;
7661;SDS011;30314;48.184;11.510;2022-07-22T17:00:49;8.90;;;7.88;;
7661;SDS011;30314;48.184;11.510;2022-07-22T17:03:17;11.73;;;7.60;;
7661;SDS011;30314;48.184;11.510;2022-07-22T17:05:51;10.52;;;8.45;;
7661;SDS011;30314;48.184;11.510;2022-07-22T17:08:19;15.00;;;9.75;;
7661;SDS011;30314;48.184;11.510;2022-07-22T17:10:47;9.57;;;8.27;;
7661;SDS011;30314;48.184;11.510;2022-07-22T17:13:15;10.43;;;7.55;;
7661;SDS011;30314;48.184;11.510;2022-07-22T17:15:55;9.35;;;8.13;;
7661;SDS011;30314;48.184;11.510;2022-07-22T17:18:23;8.98;;;8.02;;
7661;SDS011;30314;48.184;11.510;2022-07-22T17:20:51;8.90;;;7.72;;
7661;SDS011;30314;48.184;11.510;2022-07-22T17:23:18;12.27;;;8.45;;
7661;SDS011;30314;48.184;11.510;2022-07-22T17:25:46;9.40;;;8.50;;
7661;SDS011;30314;48.184;11.510;2022-07-22T17:28:17;10.15;;;8.45;;
7661;SDS011;30314;48.184;11.510;2022-07-22T17:30:45;9.52;;;8.63;;
7661;SDS011;30314;48.184;11.510;2022-07-22T17:33:14;10.20;;;8.00;;
7661;SDS011;30314;48.184;11.510;2022-07-22T17:35:41;9.15;;;8.18;;
7661;SDS011;30314;48.184;11.510;2022-07-22T17:38:09;11.57;;;9.48;;
7661;SDS011;30314;48.184;11.510;2022-07-22T17:40:38;9.93;;;8.93;;
7661;SDS011;30314;48.184;11.510;2022-07-22T17:43:05;9.50;;;8.53;;
7661;SDS011;30314;48.184;11.510;2022-07-22T17:45:35;13.77;;;8.60;;
7661;SDS011;30314;48.184;11.510;2022-07-22T17:48:03;9.75;;;8.70;;
7661;SDS011;30314;48.184;11.510;2022-07-22T17:50:32;11.38;;;8.77;;
7661;SDS011;30314;48.184;11.510;2022-07-22T17:53:04;12.05;;;8.10;;
7661;SDS011;30314;48.184;11.510;2022-07-22T17:55:33;8.17;;;7.37;;
7661;SDS011;30314;48.184;11.510;2022-07-22T17:58:01;10.85;;;7.80;;
7661;SDS011;30314;48.184;11.510;2022-07-22T18:00:29;10.38;;;8.00;;
7661;SDS011;30314;48.184;11.510;2022-07-22T18:02:58;9.43;;;8.52;;
7661;SDS011;30314;48.184;11.510;2022-07-22T18:05:25;10.02;;;9.02;;
7661;SDS011;30314;48.184;11.510;2022-07-22T18:07:54;10.93;;;8.13;;
7661;SDS011;30314;48.184;11.510;2022-07-22T18:10:22;10.40;;;9.00;;
7661;SDS011;30314;48.184;11.510;2022-07-22T18:12:50;9.90;;;8.80;;
7661;SDS011;30314;48.184;11.510;2022-07-22T18:15:18;11.00;;;7.93;;
7661;SDS011;30314;48.184;11.510;2022-07-22T18:17:46;9.17;;;8.27;;
7661;SDS011;30314;48.184;11.510;2022-07-22T18:20:13;10.90;;;8.60;;
7661;SDS011;30314;48.184;11.510;2022-07-22T18:22:47;8.03;;;7.07;;
7661;SDS011;30314;48.184;11.510;2022-07-22T18:25:16;8.43;;;7.63;;
7661;SDS011;30314;48.184;11.510;2022-07-22T18:27:43;11.90;;;8.05;;
7661;SDS011;30314;48.184;11.510;2022-07-22T18:30:11;9.63;;;8.63;;
7661;SDS011;30314;48.184;11.510;2022-07-22T18:32:40;9.37;;;8.40;;
7661;SDS011;30314;48.184;11.510;2022-07-22T18:35:08;11.03;;;8.40;;
7661;SDS011;30314;48.184;11.510;2022-07-22T18:37:36;8.03;;;7.23;;
7661;SDS011;30314;48.184;11.510;2022-07-22T18:40:05;8.33;;;7.43;;
7661;SDS011;30314;48.184;11.510;2022-07-22T18:42:35;9.90;;;8.10;;
7661;SDS011;30314;48.184;11.510;2022-07-22T18:45:03;8.77;;;7.90;;
7661;SDS011;30314;48.184;11.510;2022-07-22T18:47:31;12.77;;;8.77;;
7661;SDS011;30314;48.184;11.510;2022-07-22T18:49:59;9.77;;;7.93;;
7661;SDS011;30314;48.184;11.510;2022-07-22T18:52:26;9.23;;;8.25;;
7661;SDS011;30314;48.184;11.510;2022-07-22T18:54:55;10.97;;;8.40;;
7661;SDS011;30314;48.184;11.510;2022-07-22T18:57:23;11.13;;;9.37;;
7661;SDS011;30314;48.184;11.510;2022-07-22T18:59:55;9.40;;;8.40;;
7661;SDS011;30314;48.184;11.510;2022-07-22T19:02:23;11.02;;;8.48;;
7661;SDS011;30314;48.184;11.510;2022-07-22T19:04:51;11.77;;;9.33;;
7661;SDS011;30314;48.184;11.510;2022-07-22T19:07:19;10.67;;;8.20;;
7661;SDS011;30314;48.184;11.510;2022-07-22T19:09:46;8.97;;;8.10;;
7661;SDS011;30314;48.184;11.510;2022-07-22T19:12:14;8.43;;;7.27;;
7661;SDS011;30314;48.184;11.510;2022-07-22T19:14:42;10.30;;;7.70;;
7661;SDS011;30314;48.184;11.510;2022-07-22T19:17:11;10.30;;;7.87;;
7661;SDS011;30314;48.184;11.510;2022-07-22T19:19:39;10.80;;;8.53;;
7661;SDS011;30314;48.184;11.510;2022-07-22T19:22:06;12.20;;;8.40;;
7661;SDS011;30314;48.184;11.510;2022-07-22T19:24:34;11.90;;;7.93;;
7661;SDS011;30314;48.184;11.510;2022-07-22T19:27:02;9.67;;;8.70;;
7661;SDS011;30314;48.184;11.510;2022-07-22T19:29:31;9.27;;;8.03;;
7661;SDS011;30314;48.184;11.510;2022-07-22T19:31:58;11.47;;;8.70;;
7661;SDS011;30314;48.184;11.510;2022-07-22T19:34:27;11.00;;;8.13;;
7661;SDS011;30314;48.184;11.510;2022-07-22T19:36:55;12.73;;;9.03;;
7661;SDS011;30314;48.184;11.510;2022-07-22T19:39:23;12.90;;;9.37;;
7661;SDS011;30314;48.184;11.510;2022-07-22T19:41:51;11.13;;;8.13;;
7661;SDS011;30314;48.184;11.510;2022-07-22T19:44:19;16.93;;;7.90;;
7661;SDS011;30314;48.184;11.510;2022-07-22T19:46:46;10.70;;;8.63;;
7661;SDS011;30314;48.184;11.510;2022-07-22T19:49:17;13.73;;;10.03;;
7661;SDS011;30314;48.184;11.510;2022-07-22T19:51:47;11.80;;;8.90;;
7661;SDS011;30314;48.184;11.510;2022-07-22T19:54:15;9.90;;;8.87;;
7661;SDS011;30314;48.184;11.510;2022-07-22T19:56:43;15.47;;;9.73;;
7661;SDS011;30314;48.184;11.510;2022-07-22T19:59:10;17.77;;;14.13;;
7661;SDS011;30314;48.184;11.510;2022-07-22T20:01:38;15.23;;;12.27;;
7661;SDS011;30314;48.184;11.510;2022-07-22T20:04:06;15.50;;;11.80;;
7661;SDS011;30314;48.184;11.510;2022-07-22T20:06:34;17.13;;;11.33;;
7661;SDS011;30314;48.184;11.510;2022-07-22T20:09:03;12.10;;;10.80;;
7661;SDS011;30314;48.184;11.510;2022-07-22T20:11:31;13.33;;;10.07;;
7661;SDS011;30314;48.184;11.510;2022-07-22T20:13:59;11.70;;;10.40;;
7661;SDS011;30314;48.184;11.510;2022-07-22T20:16:27;12.83;;;10.13;;
7661;SDS011;30314;48.184;11.510;2022-07-22T20:18:55;13.60;;;11.20;;
7661;SDS011;30314;48.184;11.510;2022-07-22T20:21:24;15.53;;;10.67;;
7661;SDS011;30314;48.184;11.510;2022-07-22T20:23:53;14.40;;;10.83;;
7661;SDS011;30314;48.184;11.510;2022-07-22T20:26:22;14.30;;;10.37;;
7661;SDS011;30314;48.184;11.510;2022-07-22T20:28:50;15.17;;;10.60;;
7661;SDS011;30314;48.184;11.510;2022-07-22T20:31:18;20.83;;;9.83;;
7661;SDS011;30314;48.184;11.510;2022-07-22T20:33:47;18.83;;;11.13;;
7661;SDS011;30314;48.184;11.510;2022-07-22T20:36:14;12.20;;;10.90;;
7661;SDS011;30314;48.184;11.510;2022-07-22T20:38:42;17.87;;;10.50;;
7661;SDS011;30314;48.184;11.510;2022-07-22T20:41:10;16.70;;;12.73;;
7661;SDS011;30314;48.184;11.510;2022-07-22T20:43:39;15.40;;;12.10;;
7661;SDS011;30314;48.184;11.510;2022-07-22T20:46:06;16.43;;;13.80;;
7661;SDS011;30314;48.184;11.510;2022-07-22T20:48:34;17.60;;;13.70;;
7661;SDS011;30314;48.184;11.510;2022-07-22T20:51:02;17.00;;;12.47;;
7661;SDS011;30314;48.184;11.510;2022-07-22T20:53:30;15.60;;;13.80;;
7661;SDS011;30314;48.184;11.510;2022-07-22T20:55:58;18.03;;;15.70;;
7661;SDS011;30314;48.184;11.510;2022-07-22T20:58:26;19.87;;;12.40;;
7661;SDS011;30314;48.184;11.510;2022-07-22T21:00:55;18.10;;;14.13;;
7661;SDS011;30314;48.184;11.510;2022-07-22T21:03:22;18.93;;;13.87;;
7661;SDS011;30314;48.184;11.510;2022-07-22T21:05:50;14.27;;;12.30;;
7661;SDS011;30314;48.184;11.510;2022-07-22T21:08:18;13.90;;;11.40;;
7661;SDS011;30314;48.184;11.510;2022-07-22T21:10:46;15.20;;;12.90;;
7661;SDS011;30314;48.184;11.510;2022-07-22T21:13:14;13.37;;;11.97;;
7661;SDS011;30314;48.184;11.510;2022-07-22T21:15:45;14.30;;;11.80;;
7661;SDS011;30314;48.184;11.510;2022-07-22T21:18:14;13.43;;;11.33;;
7661;SDS011;30314;48.184;11.510;2022-07-22T21:20:42;12.60;;;9.97;;
7661;SDS011;30314;48.184;11.510;2022-07-22T21:23:10;12.83;;;11.13;;
7661;SDS011;30314;48.184;11.510;2022-07-22T21:25:38;10.97;;;9.87;;
7661;SDS011;30314;48.184;11.510;2022-07-22T21:28:05;14.13;;;10.03;;
7661;SDS011;30314;48.184;11.510;2022-07-22T21:30:33;14.10;;;10.80;;
7661;SDS011;30314;48.184;11.510;2022-07-22T21:33:03;12.20;;;10.30;;
7661;SDS011;30314;48.184;11.510;2022-07-22T21:35:36;13.13;;;10.77;;
7661;SDS011;30314;48.184;11.510;2022-07-22T21:38:04;13.13;;;9.43;;
7661;SDS011;30314;48.184;11.510;2022-07-22T21:40:31;11.50;;;9.00;;
7661;SDS011;30314;48.184;11.510;2022-07-22T21:43:00;11.37;;;9.50;;
7661;SDS011;30314;48.184;11.510;2022-07-22T21:45:29;11.60;;;10.10;;
7661;SDS011;30314;48.184;11.510;2022-07-22T21:47:56;11.10;;;8.67;;
7661;SDS011;30314;48.184;11.510;2022-07-22T21:50:24;14.57;;;9.47;;
7661;SDS011;30314;48.184;11.510;2022-07-22T21:52:53;10.07;;;8.43;;
7661;SDS011;30314;48.184;11.510;2022-07-22T21:55:21;14.40;;;9.00;;
7661;SDS011;30314;48.184;11.510;2022-07-22T21:57:49;11.70;;;8.83;;
7661;SDS011;30314;48.184;11.510;2022-07-22T22:00:17;10.40;;;8.70;;
7661;SDS011;30314;48.184;11.510;2022-07-22T22:02:44;11.30;;;8.73;;
7661;SDS011;30314;48.184;11.510;2022-07-22T22:05:12;10.20;;;8.90;;
7661;SDS011;30314;48.184;11.510;2022-07-22T22:07:40;10.23;;;8.90;;
7661;SDS011;30314;48.184;11.510;2022-07-22T22:10:09;14.33;;;9.80;;
7661;SDS011;30314;48.184;11.510;2022-07-22T22:12:37;12.70;;;8.83;;
7661;SDS011;30314;48.184;11.510;2022-07-22T22:15:06;10.03;;;9.00;;
7661;SDS011;30314;48.184;11.510;2022-07-22T22:17:34;12.37;;;9.57;;
7661;SDS011;30314;48.184;11.510;2022-07-22T22:20:02;10.97;;;9.57;;
7661;SDS011;30314;48.184;11.510;2022-07-22T22:22:31;12.67;;;9.80;;
7661;SDS011;30314;48.184;11.510;2022-07-22T22:24:58;11.23;;;9.20;;
7661;SDS011;30314;48.184;11.510;2022-07-22T22:27:27;15.90;;;8.53;;
7661;SDS011;30314;48.184;11.510;2022-07-22T22:29:55;10.07;;;8.80;;
7661;SDS011;30314;48.184;11.510;2022-07-22T22:32:23;9.80;;;8.80;;
7661;SDS011;30314;48.184;11.510;2022-07-22T22:34:51;14.33;;;10.37;;
7661;SDS011;30314;48.184;11.510;2022-07-22T22:37:18;11.77;;;10.37;;
7661;SDS011;30314;48.184;11.510;2022-07-22T22:39:46;12.77;;;9.40;;
7661;SDS011;30314;48.184;11.510;2022-07-22T22:42:14;15.07;;;9.30;;
7661;SDS011;30314;48.184;11.510;2022-07-22T22:44:43;12.00;;;8.83;;
7661;SDS011;30314;48.184;11.510;2022-07-22T22:47:10;10.03;;;8.33;;
7661;SDS011;30314;48.184;11.510;2022-07-22T22:49:38;11.10;;;8.67;;
7661;SDS011;30314;48.184;11.510;2022-07-22T22:52:06;10.93;;;8.53;;
7661;SDS011;30314;48.184;11.510;2022-07-22T22:54:33;10.13;;;8.33;;
7661;SDS011;30314;48.184;11.510;2022-07-22T22:57:01;10.40;;;8.30;;
7661;SDS011;30314;48.184;11.510;2022-07-22T22:59:29;9.93;;;7.67;;
7661;SDS011;30314;48.184;11.510;2022-07-22T23:01:58;11.23;;;9.13;;
7661;SDS011;30314;48.184;11.510;2022-07-22T23:04:26;11.53;;;8.87;;
7661;SDS011;30314;48.184;11.510;2022-07-22T23:06:53;11.60;;;8.53;;
7661;SDS011;30314;48.184;11.510;2022-07-22T23:09:21;9.10;;;7.90;;
7661;SDS011;30314;48.184;11.510;2022-07-22T23:11:49;9.23;;;7.70;;
7661;SDS011;30314;48.184;11.510;2022-07-22T23:14:16;10.67;;;7.60;;
7661;SDS011;30314;48.184;11.510;2022-07-22T23:16:44;9.63;;;8.17;;
7661;SDS011;30314;48.184;11.510;2022-07-22T23:19:13;10.17;;;7.63;;
7661;SDS011;30314;48.184;11.510;2022-07-22T23:21:41;9.70;;;7.27;;
7661;SDS011;30314;48.184;11.510;2022-07-22T23:24:09;9.60;;;7.63;;
7661;SDS011;30314;48.184;11.510;2022-07-22T23:26:36;9.87;;;7.97;;
7661;SDS011;30314;48.184;11.510;2022-07-22T23:29:04;8.83;;;7.40;;
7661;SDS011;30314;48.184;11.510;2022-07-22T23:31:31;10.20;;;7.30;;
7661;SDS011;30314;48.184;11.510;2022-07-22T23:33:59;10.73;;;7.67;;
7661;SDS011;30314;48.184;11.510;2022-07-22T23:36:29;10.30;;;7.20;;
7661;SDS011;30314;48.184;11.510;2022-07-22T23:38:56;9.37;;;7.60;;
7661;SDS011;30314;48.184;11.510;2022-07-22T23:41:24;8.57;;;7.50;;
7661;SDS011;30314;48.184;11.510;2022-07-22T23:43:53;12.30;;;7.97;;
7661;SDS011;30314;48.184;11.510;2022-07-22T23:46:20;10.27;;;8.30;;
7661;SDS011;30314;48.184;11.510;2022-07-22T23:48:48;9.40;;;7.00;;
7661;SDS011;30314;48.184;11.510;2022-07-22T23:51:16;11.10;;;8.10;;
7661;SDS011;30314;48.184;11.510;2022-07-22T23:53:45;8.77;;;7.93;;
7661;SDS011;30314;48.184;11.510;2022-07-22T23:56:13;12.03;;;7.40;;
7661;SDS011;30314;48.184;11.510;2022-07-22T23:58:41;10.37;;;8.63;;
